YPKL weather

Puckapunyal (Military) Airport
Victoria, Australia

Public forecast

Using degrees Celsius for public forecast. Weather courtesy of forecast.io.

METAR (pilot weather report)

Closest report is Melbourne International Airport, 41.8 nm (77.4 km) SSW. Retrieved 2019/02/16 21:00 UTC (13 minutes ago):

YMML 162100Z 01007KT CAVOK 15/13 Q1013 NOSIG

TAF (pilot weather forecast)

Forecast is more than 12 hours old.

Closest forecast is Melbourne International Airport, 41.8 nm (77.4 km) SSW. Retrieved 2019/02/15 00:00 UTC (2 days ago):

TAF YMML 152316Z 1600/1706 VRB04KT CAVOK FM160300 18014KT CAVOK BECMG 1611/1613 VRB05KT 9999 FEW004 BKN008 FM161800 VRB05KT 9999 FEW003 BKN006 BECMG 1622/1624 VRB05KT CAVOK PROB30 1618/1622 0500 FG BKN003